createdAt,value
2023-01-29T00:00:48.529Z,21.40
2023-01-29T00:01:48.583Z,21.40
2023-01-29T00:02:48.579Z,20.70
2023-01-29T00:03:48.529Z,21.50
2023-01-29T00:04:48.484Z,21.10
2023-01-29T00:05:48.478Z,20.90
2023-01-29T00:06:48.465Z,21.00
2023-01-29T00:07:48.460Z,21.20
2023-01-29T00:08:48.459Z,19.90
2023-01-29T00:09:48.455Z,21.10
2023-01-29T00:10:48.426Z,21.20
2023-01-29T00:11:48.422Z,21.20
2023-01-29T00:12:48.408Z,21.60
2023-01-29T00:13:48.416Z,20.90
2023-01-29T00:14:48.385Z,21.20
2023-01-29T00:15:48.380Z,21.20
2023-01-29T00:16:48.405Z,21.20
2023-01-29T00:17:48.386Z,22.00
2023-01-29T00:18:48.370Z,22.10
2023-01-29T00:19:48.339Z,21.80
2023-01-29T00:20:48.335Z,21.60
2023-01-29T00:21:48.326Z,21.70
2023-01-29T00:22:48.327Z,20.20
2023-01-29T00:23:48.318Z,20.70
2023-01-29T00:24:48.287Z,18.60
2023-01-29T00:25:48.281Z,20.00
2023-01-29T00:26:48.267Z,20.30
2023-01-29T00:27:48.261Z,21.10
2023-01-29T00:28:48.262Z,21.10
2023-01-29T00:29:48.241Z,20.50
2023-01-29T00:30:48.223Z,20.80
2023-01-29T00:31:48.290Z,20.00
2023-01-29T00:32:48.210Z,19.40
2023-01-29T00:33:48.213Z,20.30
2023-01-29T00:34:48.189Z,19.80
2023-01-29T00:35:48.185Z,20.90
2023-01-29T00:36:48.167Z,20.30
2023-01-29T00:37:48.157Z,21.00
2023-01-29T00:38:48.156Z,20.90
2023-01-29T00:39:48.533Z,20.60
2023-01-29T00:40:48.127Z,21.30
2023-01-29T00:41:48.114Z,21.10
2023-01-29T00:42:48.098Z,21.30
2023-01-29T00:43:48.119Z,21.40
2023-01-29T00:44:48.083Z,21.00
2023-01-29T00:45:48.077Z,21.70
2023-01-29T00:46:48.132Z,21.50
2023-01-29T00:47:48.057Z,23.00
2023-01-29T00:48:48.053Z,21.40
2023-01-29T00:49:48.033Z,21.30
2023-01-29T00:50:48.025Z,21.70
2023-01-29T00:51:48.009Z,20.80
2023-01-29T00:52:47.999Z,21.70
2023-01-29T00:53:48.010Z,20.90
2023-01-29T00:54:47.975Z,21.30
2023-01-29T00:55:47.976Z,20.80
2023-01-29T00:56:47.949Z,21.70
2023-01-29T00:57:47.950Z,21.60
2023-01-29T00:58:47.946Z,20.40
2023-01-29T00:59:47.951Z,21.40
2023-01-29T01:00:47.934Z,21.20
2023-01-29T01:01:47.951Z,21.40
2023-01-29T01:02:47.908Z,21.40
2023-01-29T01:03:47.888Z,21.50
2023-01-29T01:04:47.887Z,20.90
2023-01-29T01:05:47.870Z,21.90
2023-01-29T01:06:47.853Z,21.00
2023-01-29T01:07:47.853Z,21.20
2023-01-29T01:08:47.836Z,20.80
2023-01-29T01:09:47.838Z,21.40
2023-01-29T01:10:47.808Z,21.00
2023-01-29T01:11:47.801Z,20.40
2023-01-29T01:12:47.787Z,20.50
2023-01-29T01:13:47.779Z,20.70
2023-01-29T01:14:47.784Z,22.10
2023-01-29T01:15:47.772Z,21.30
2023-01-29T01:16:47.747Z,20.60
2023-01-29T01:17:47.746Z,21.30
2023-01-29T01:18:47.737Z,20.50
2023-01-29T01:19:47.742Z,21.10
2023-01-29T01:20:47.709Z,19.90
2023-01-29T01:21:47.710Z,21.00
2023-01-29T01:22:47.683Z,21.30
2023-01-29T01:23:47.685Z,20.60
2023-01-29T01:24:47.679Z,21.50
2023-01-29T01:25:47.659Z,20.80
2023-01-29T01:26:47.643Z,21.00
2023-01-29T01:27:47.651Z,21.30
2023-01-29T01:28:47.622Z,21.60
2023-01-29T01:29:47.686Z,22.10
2023-01-29T01:30:47.619Z,21.90
2023-01-29T01:31:47.650Z,21.10
2023-01-29T01:32:47.584Z,21.70
2023-01-29T01:33:47.578Z,21.80
2023-01-29T01:34:47.572Z,21.40
2023-01-29T01:35:47.560Z,21.70
2023-01-29T01:36:47.547Z,21.40
2023-01-29T01:37:47.545Z,22.30
2023-01-29T01:38:47.516Z,20.80
2023-01-29T01:39:47.522Z,21.50
2023-01-29T01:40:47.501Z,22.70
2023-01-29T01:41:47.489Z,22.30
2023-01-29T01:42:47.478Z,22.20
2023-01-29T01:43:47.467Z,21.40
2023-01-29T01:44:47.475Z,22.00
2023-01-29T01:45:47.459Z,22.50
2023-01-29T01:46:47.431Z,23.30
2023-01-29T01:47:47.429Z,22.00
2023-01-29T01:48:47.412Z,22.60
2023-01-29T01:49:47.433Z,21.90
2023-01-29T01:50:47.392Z,22.70
2023-01-29T01:51:47.385Z,23.20
2023-01-29T01:52:47.372Z,22.80
2023-01-29T01:53:47.369Z,23.00
2023-01-29T01:54:47.362Z,23.70
2023-01-29T01:55:47.344Z,23.10
2023-01-29T01:56:47.334Z,23.10
2023-01-29T01:57:47.325Z,23.40
2023-01-29T01:58:47.308Z,24.10
2023-01-29T01:59:47.320Z,22.90
2023-01-29T02:00:47.297Z,23.70
2023-01-29T02:01:47.284Z,23.40
2023-01-29T02:02:47.276Z,23.80
2023-01-29T02:03:47.264Z,23.60
2023-01-29T02:04:47.272Z,23.10
2023-01-29T02:05:47.239Z,24.50
2023-01-29T02:06:47.233Z,24.30
2023-01-29T02:07:47.219Z,23.40
2023-01-29T02:08:47.233Z,23.50
2023-01-29T02:09:47.222Z,22.70
2023-01-29T02:10:47.197Z,23.40
2023-01-29T02:11:47.180Z,23.80
2023-01-29T02:13:57.267Z,22.50
2023-01-29T02:14:58.270Z,23.70
2023-01-29T02:15:58.259Z,22.80
2023-01-29T02:16:58.241Z,22.60
2023-01-29T02:17:58.231Z,23.40
2023-01-29T02:18:58.214Z,23.30
2023-01-29T02:19:58.229Z,23.30
2023-01-29T02:20:58.203Z,22.60
2023-01-29T02:21:58.185Z,22.20
2023-01-29T02:22:58.177Z,22.10
2023-01-29T02:23:58.315Z,22.70
2023-01-29T02:24:58.169Z,21.40
2023-01-29T02:25:58.146Z,22.30
2023-01-29T02:26:58.140Z,21.60
2023-01-29T02:27:58.121Z,21.70
2023-01-29T02:28:58.115Z,21.60
2023-01-29T02:29:58.116Z,20.80
2023-01-29T02:30:58.262Z,20.90
2023-01-29T02:31:58.118Z,21.50
2023-01-29T02:32:58.071Z,21.10
2023-01-29T02:33:58.054Z,21.80
2023-01-29T02:34:58.090Z,21.00
2023-01-29T02:35:58.035Z,20.90
2023-01-29T02:36:58.031Z,21.70
2023-01-29T02:37:58.020Z,22.30
2023-01-29T02:38:58.012Z,20.80
2023-01-29T02:39:58.009Z,22.20
2023-01-29T02:40:57.993Z,21.80
2023-01-29T02:41:57.974Z,22.00
2023-01-29T02:42:57.970Z,22.30
2023-01-29T02:43:57.952Z,22.30
2023-01-29T02:44:57.968Z,22.60
2023-01-29T02:45:57.958Z,22.40
2023-01-29T02:46:57.924Z,23.70
2023-01-29T02:47:57.915Z,22.80
2023-01-29T02:48:57.935Z,22.40
2023-01-29T02:49:57.902Z,22.40
2023-01-29T02:50:57.903Z,22.40
2023-01-29T02:51:57.871Z,21.30
2023-01-29T02:52:57.866Z,21.10
2023-01-29T02:53:57.848Z,21.50
2023-01-29T02:54:57.854Z,21.90
2023-01-29T02:55:57.830Z,21.80
2023-01-29T02:56:57.822Z,21.80
2023-01-29T02:57:57.803Z,22.30
2023-01-29T02:58:57.803Z,21.20
2023-01-29T02:59:57.810Z,21.70
2023-01-29T03:00:57.806Z,21.50
2023-01-29T03:01:57.792Z,21.90
2023-01-29T03:02:57.768Z,22.00
2023-01-29T03:03:57.745Z,21.50
2023-01-29T03:04:57.755Z,21.80
2023-01-29T03:05:57.723Z,22.80
2023-01-29T03:06:57.718Z,21.50
2023-01-29T03:07:57.712Z,20.80
2023-01-29T03:08:57.705Z,21.90
2023-01-29T03:09:57.698Z,21.30
2023-01-29T03:10:57.679Z,22.10
2023-01-29T03:11:57.663Z,21.60
2023-01-29T03:12:57.657Z,22.60
2023-01-29T03:13:57.639Z,22.80
2023-01-29T03:14:57.658Z,21.70
2023-01-29T03:15:57.624Z,22.30
2023-01-29T03:16:57.616Z,22.20
2023-01-29T03:17:57.603Z,22.40
2023-01-29T03:18:57.601Z,20.90
2023-01-29T03:19:57.598Z,22.30
2023-01-29T03:20:57.576Z,22.90
2023-01-29T03:21:57.558Z,22.50
2023-01-29T03:22:57.558Z,20.70
2023-01-29T03:23:57.557Z,21.60
2023-01-29T03:24:57.543Z,22.20
2023-01-29T03:25:57.533Z,22.50
2023-01-29T03:26:57.522Z,23.70
2023-01-29T03:27:57.502Z,23.50
2023-01-29T03:28:57.493Z,22.90
2023-01-29T03:29:57.503Z,22.50
2023-01-29T03:30:57.541Z,22.40
2023-01-29T03:31:57.561Z,22.80
2023-01-29T03:32:57.448Z,23.40
2023-01-29T03:33:57.433Z,24.20
2023-01-29T03:34:57.440Z,24.40
2023-01-29T03:35:57.441Z,23.70
2023-01-29T03:36:57.411Z,24.10
2023-01-29T03:37:57.398Z,24.10
2023-01-29T03:38:57.392Z,24.20
2023-01-29T03:39:57.404Z,23.90
2023-01-29T03:40:57.367Z,24.30
2023-01-29T03:41:57.362Z,23.90
2023-01-29T03:42:57.345Z,24.40
2023-01-29T03:43:57.330Z,25.20
2023-01-29T03:44:57.339Z,25.00
2023-01-29T03:45:57.367Z,25.00
2023-01-29T03:46:57.302Z,24.40
2023-01-29T03:47:57.294Z,24.10
2023-01-29T03:48:57.282Z,24.70
2023-01-29T03:49:57.291Z,24.70
2023-01-29T03:50:57.270Z,25.00
2023-01-29T03:51:57.276Z,24.80
2023-01-29T03:52:57.238Z,24.70
2023-01-29T03:53:57.227Z,23.80
2023-01-29T03:54:57.240Z,24.70
2023-01-29T03:55:57.203Z,25.20
2023-01-29T03:56:57.202Z,24.70
2023-01-29T03:57:57.181Z,24.90
2023-01-29T03:58:57.179Z,24.50
2023-01-29T03:59:57.175Z,23.80
2023-01-29T04:00:57.154Z,25.10
2023-01-29T04:01:57.138Z,25.50
2023-01-29T04:02:57.142Z,24.40
2023-01-29T04:03:57.223Z,24.30
2023-01-29T04:04:57.130Z,25.40
2023-01-29T04:05:57.096Z,25.00
2023-01-29T04:06:57.093Z,24.10
2023-01-29T04:07:57.079Z,25.10
2023-01-29T04:08:57.078Z,26.50
2023-01-29T04:09:57.074Z,25.40
2023-01-29T04:10:57.060Z,25.60
2023-01-29T04:11:57.037Z,24.70
2023-01-29T04:12:57.054Z,26.30
2023-01-29T04:13:57.016Z,24.80
2023-01-29T04:14:57.031Z,26.00
2023-01-29T04:15:56.998Z,25.30
2023-01-29T04:16:56.992Z,25.70
2023-01-29T04:17:56.982Z,26.40
2023-01-29T04:18:56.976Z,25.10
2023-01-29T04:19:56.973Z,25.00
2023-01-29T04:20:56.955Z,25.30
2023-01-29T04:21:56.940Z,25.40
2023-01-29T04:22:56.940Z,24.00
2023-01-29T04:23:56.946Z,25.20
2023-01-29T04:24:56.927Z,25.20
2023-01-29T04:25:56.904Z,26.60
2023-01-29T04:26:56.898Z,24.40
2023-01-29T04:27:56.880Z,25.20
2023-01-29T04:28:56.876Z,25.70
2023-01-29T04:29:56.863Z,24.90
2023-01-29T04:30:56.936Z,24.70
2023-01-29T04:31:56.872Z,24.00
2023-01-29T04:32:56.835Z,25.60
2023-01-29T04:33:56.823Z,23.40
2023-01-29T04:34:56.823Z,24.60
2023-01-29T04:35:56.815Z,24.30
2023-01-29T04:36:56.795Z,25.20
2023-01-29T04:37:56.784Z,24.50
2023-01-29T04:38:56.776Z,24.10
2023-01-29T04:39:56.766Z,24.60
2023-01-29T04:40:56.772Z,24.60
2023-01-29T04:41:56.743Z,25.30
2023-01-29T04:42:56.746Z,25.50
2023-01-29T04:43:56.722Z,24.70
2023-01-29T04:44:56.723Z,26.20
2023-01-29T04:45:56.717Z,25.80
2023-01-29T04:46:56.697Z,25.10
2023-01-29T04:47:56.693Z,25.90
2023-01-29T04:48:56.679Z,25.90
2023-01-29T04:49:56.662Z,26.50
2023-01-29T04:50:56.670Z,26.70
2023-01-29T04:51:56.644Z,26.70
2023-01-29T04:52:56.641Z,27.30
2023-01-29T04:53:56.626Z,26.40
2023-01-29T04:54:56.628Z,27.30
2023-01-29T04:55:56.628Z,27.90
2023-01-29T04:56:56.602Z,26.90
2023-01-29T04:57:56.584Z,28.60
2023-01-29T04:58:56.583Z,27.10
2023-01-29T04:59:56.564Z,28.20
2023-01-29T05:00:56.584Z,27.20
2023-01-29T05:01:56.577Z,26.80
2023-01-29T05:02:56.567Z,28.90
2023-01-29T05:03:56.525Z,27.10
2023-01-29T05:04:56.520Z,27.40
2023-01-29T05:05:56.519Z,27.40
2023-01-29T05:06:56.500Z,27.70
2023-01-29T05:07:56.484Z,27.20
2023-01-29T05:08:56.492Z,27.90
2023-01-29T05:09:56.463Z,28.50
2023-01-29T05:10:56.477Z,26.90
2023-01-29T05:11:56.449Z,27.60
2023-01-29T05:12:56.441Z,27.30
2023-01-29T05:13:56.426Z,28.40
2023-01-29T05:14:56.419Z,27.50
2023-01-29T05:15:56.452Z,26.70
2023-01-29T05:16:56.414Z,28.00
2023-01-29T05:17:56.389Z,28.10
2023-01-29T05:18:56.390Z,27.90
2023-01-29T05:19:56.368Z,27.00
2023-01-29T05:20:56.404Z,27.50
2023-01-29T05:21:56.347Z,28.40
2023-01-29T05:22:56.351Z,28.30
2023-01-29T05:23:56.334Z,27.60
2023-01-29T05:24:56.359Z,27.90
2023-01-29T05:25:56.325Z,27.60
2023-01-29T05:26:56.316Z,28.10
2023-01-29T05:27:56.291Z,28.40
2023-01-29T05:28:56.396Z,28.60
2023-01-29T05:29:56.271Z,27.90
2023-01-29T05:30:56.490Z,27.40
2023-01-29T05:31:56.319Z,27.30
2023-01-29T05:32:56.271Z,27.50
2023-01-29T05:33:56.228Z,27.60
2023-01-29T05:34:56.228Z,27.00
2023-01-29T05:35:56.220Z,26.80
2023-01-29T05:36:56.217Z,27.50
2023-01-29T05:37:56.189Z,27.00
2023-01-29T05:38:56.199Z,27.20
2023-01-29T05:39:56.171Z,26.70
2023-01-29T05:40:56.198Z,27.00
2023-01-29T05:41:56.152Z,26.80
2023-01-29T05:42:56.143Z,25.80
2023-01-29T05:43:56.131Z,27.00
2023-01-29T05:44:56.166Z,26.70
2023-01-29T05:45:56.160Z,26.20
2023-01-29T05:46:56.140Z,26.60
2023-01-29T05:47:56.095Z,26.40
2023-01-29T05:48:56.089Z,26.60
2023-01-29T05:49:56.073Z,26.10
2023-01-29T05:50:56.083Z,25.20
2023-01-29T05:51:56.054Z,26.30
2023-01-29T05:52:56.045Z,26.60
2023-01-29T05:53:56.033Z,25.70
2023-01-29T05:54:56.035Z,26.50
2023-01-29T05:55:56.027Z,26.00
2023-01-29T05:56:56.008Z,26.60
2023-01-29T05:57:55.990Z,26.10
2023-01-29T05:58:55.993Z,27.00
2023-01-29T05:59:55.980Z,27.00
2023-01-29T06:00:55.980Z,27.20
2023-01-29T06:01:56.042Z,27.50
2023-01-29T06:02:56.016Z,27.30
2023-01-29T06:03:55.936Z,27.90
2023-01-29T06:04:55.929Z,26.90
2023-01-29T06:05:55.924Z,26.90
2023-01-29T06:06:55.904Z,27.10
2023-01-29T06:07:55.892Z,27.90
2023-01-29T06:08:55.888Z,27.80
2023-01-29T06:09:55.869Z,28.30
2023-01-29T06:10:55.878Z,27.40
2023-01-29T06:11:55.860Z,27.90
2023-01-29T06:12:55.846Z,28.50
2023-01-29T06:13:55.831Z,28.60
2023-01-29T06:14:55.827Z,29.20
2023-01-29T06:15:55.890Z,29.30
2023-01-29T06:16:55.803Z,29.10
2023-01-29T06:17:55.789Z,29.00
2023-01-29T06:18:55.791Z,28.80
2023-01-29T06:19:55.772Z,29.80
2023-01-29T06:20:55.789Z,29.70
2023-01-29T06:21:55.759Z,29.60
2023-01-29T06:22:55.756Z,28.30
2023-01-29T06:23:55.769Z,29.50
2023-01-29T06:24:55.729Z,29.70
2023-01-29T06:25:55.822Z,29.40
2023-01-29T06:26:55.737Z,28.40
2023-01-29T06:27:57.778Z,28.60
2023-01-29T06:28:55.678Z,28.80
2023-01-29T06:29:55.672Z,28.30
2023-01-29T06:30:55.679Z,28.30
2023-01-29T06:31:55.765Z,27.40
2023-01-29T06:32:55.605Z,27.90
2023-01-29T06:33:55.579Z,29.30
2023-01-29T06:34:55.572Z,28.90
2023-01-29T06:35:55.573Z,28.10
2023-01-29T06:36:55.553Z,29.30
2023-01-29T06:37:55.553Z,29.00
2023-01-29T06:38:55.549Z,29.20
2023-01-29T06:39:55.518Z,27.90
2023-01-29T06:40:55.530Z,28.00
2023-01-29T06:41:55.499Z,29.70
2023-01-29T06:42:55.502Z,29.00
2023-01-29T06:43:55.490Z,29.70
2023-01-29T06:44:55.471Z,28.80
2023-01-29T06:45:55.528Z,29.40
2023-01-29T06:46:55.450Z,30.10
2023-01-29T06:47:55.443Z,29.90
2023-01-29T06:48:55.431Z,29.70
2023-01-29T06:49:55.439Z,29.20
2023-01-29T06:50:55.429Z,29.10
2023-01-29T06:51:55.424Z,29.10
2023-01-29T06:52:55.388Z,28.80
2023-01-29T06:53:55.388Z,28.90
2023-01-29T06:54:55.372Z,28.40
2023-01-29T06:55:55.381Z,27.70
2023-01-29T06:56:55.351Z,29.00
2023-01-29T06:57:55.349Z,28.60
2023-01-29T06:58:55.333Z,28.40
2023-01-29T06:59:55.336Z,29.30
2023-01-29T07:00:55.348Z,29.30
2023-01-29T07:01:55.360Z,29.80
2023-01-29T07:02:55.291Z,28.80
2023-01-29T07:03:55.296Z,28.20
2023-01-29T07:04:55.275Z,28.70
2023-01-29T07:05:55.276Z,28.80
2023-01-29T07:06:55.254Z,28.30
2023-01-29T07:07:55.248Z,29.40
2023-01-29T07:08:55.241Z,28.90
2023-01-29T07:09:55.228Z,28.70
2023-01-29T07:10:55.225Z,28.20
2023-01-29T07:11:55.207Z,28.30
2023-01-29T07:12:55.198Z,27.90
2023-01-29T07:13:55.220Z,27.80
2023-01-29T07:14:55.174Z,27.70
2023-01-29T07:15:55.272Z,28.50
2023-01-29T07:16:55.161Z,28.20
2023-01-29T07:17:55.149Z,27.40
2023-01-29T07:18:55.150Z,28.00
2023-01-29T07:19:55.143Z,28.10
2023-01-29T07:20:55.128Z,28.60
2023-01-29T07:21:55.109Z,28.60
2023-01-29T07:22:55.098Z,29.70
2023-01-29T07:23:55.103Z,27.80
2023-01-29T07:24:55.076Z,29.20
2023-01-29T07:25:55.072Z,28.20
2023-01-29T07:26:55.080Z,28.80
2023-01-29T07:27:55.052Z,28.20
2023-01-29T07:28:55.039Z,29.40
2023-01-29T07:29:55.035Z,29.30
2023-01-29T07:30:55.045Z,28.50
2023-01-29T07:31:55.184Z,29.20
2023-01-29T07:32:54.999Z,29.10
2023-01-29T07:33:54.994Z,29.20
2023-01-29T07:34:54.982Z,30.10
2023-01-29T07:35:54.975Z,29.30
2023-01-29T07:36:54.983Z,30.60
2023-01-29T07:37:55.037Z,29.10
2023-01-29T07:38:54.941Z,28.70
2023-01-29T07:39:54.942Z,29.90
2023-01-29T07:40:54.927Z,30.00
2023-01-29T07:41:54.932Z,30.00
2023-01-29T07:42:54.902Z,29.30
2023-01-29T07:43:54.898Z,29.70
2023-01-29T07:44:54.883Z,28.50
2023-01-29T07:45:54.899Z,29.60
2023-01-29T07:46:54.884Z,28.30
2023-01-29T07:47:54.867Z,29.30
2023-01-29T07:48:54.843Z,29.00
2023-01-29T07:49:54.838Z,29.70
2023-01-29T07:50:54.826Z,29.50
2023-01-29T07:51:54.834Z,28.80
2023-01-29T07:52:54.813Z,29.20
2023-01-29T07:53:54.800Z,29.80
2023-01-29T07:54:54.801Z,29.80
2023-01-29T07:55:54.778Z,29.60
2023-01-29T07:56:54.780Z,29.60
2023-01-29T07:57:54.762Z,28.60
2023-01-29T07:58:54.749Z,29.70
2023-01-29T07:59:54.744Z,28.90
2023-01-29T08:00:54.757Z,27.90
2023-01-29T08:01:54.752Z,28.00
2023-01-29T08:02:54.709Z,27.10
2023-01-29T08:03:54.704Z,27.80
2023-01-29T08:04:54.687Z,27.90
2023-01-29T08:05:54.687Z,27.80
2023-01-29T08:06:54.680Z,27.90
2023-01-29T08:08:06.124Z,28.70
2023-01-29T08:08:54.659Z,27.60
2023-01-29T08:09:54.642Z,28.60
2023-01-29T08:10:54.629Z,28.90
2023-01-29T08:11:54.637Z,28.60
2023-01-29T08:12:54.607Z,29.40
2023-01-29T08:13:54.599Z,29.10
2023-01-29T08:14:54.590Z,28.40
2023-01-29T08:15:54.585Z,28.90
2023-01-29T08:16:54.591Z,29.30
2023-01-29T08:17:58.012Z,28.50
2023-01-29T08:18:54.548Z,28.20
2023-01-29T08:19:54.541Z,29.10
2023-01-29T08:20:54.529Z,29.30
2023-01-29T08:21:54.544Z,29.40
2023-01-29T08:22:54.509Z,29.60
2023-01-29T08:23:54.584Z,29.90
2023-01-29T08:25:06.272Z,28.70
2023-01-29T08:25:54.582Z,28.90
2023-01-29T08:26:54.499Z,28.40
2023-01-29T08:27:54.466Z,28.90
2023-01-29T08:28:54.456Z,29.50
2023-01-29T08:29:54.442Z,28.60
2023-01-29T08:30:54.485Z,29.50
2023-01-29T08:31:54.468Z,29.30
2023-01-29T08:32:54.439Z,29.30
2023-01-29T08:33:54.412Z,30.70
2023-01-29T08:34:54.415Z,29.40
2023-01-29T08:35:54.403Z,30.90
2023-01-29T08:36:54.398Z,30.80
2023-01-29T08:37:54.384Z,29.10
2023-01-29T08:38:54.372Z,29.50
2023-01-29T08:39:54.354Z,29.50
2023-01-29T08:40:54.336Z,28.60
2023-01-29T08:41:54.343Z,28.80
2023-01-29T08:42:54.316Z,29.40
2023-01-29T08:43:54.342Z,29.20
2023-01-29T08:44:54.291Z,28.30
2023-01-29T08:45:54.323Z,29.70
2023-01-29T08:46:54.304Z,29.60
2023-01-29T08:47:54.293Z,29.20
2023-01-29T08:48:54.261Z,27.60
2023-01-29T08:49:54.252Z,28.10
2023-01-29T08:50:54.234Z,29.30
2023-01-29T08:51:54.242Z,28.90
2023-01-29T08:52:54.214Z,29.00
2023-01-29T08:53:54.212Z,29.20
2023-01-29T08:54:54.194Z,28.40
2023-01-29T08:55:54.197Z,29.10
2023-01-29T08:56:54.192Z,28.90
2023-01-29T08:57:54.174Z,29.90
2023-01-29T08:58:54.161Z,29.10
2023-01-29T08:59:54.148Z,29.50
2023-01-29T09:00:54.181Z,29.80
2023-01-29T09:01:54.159Z,30.50
2023-01-29T09:02:54.123Z,29.30
2023-01-29T09:03:54.109Z,29.80
2023-01-29T09:04:54.114Z,28.60
2023-01-29T09:05:54.106Z,28.80
2023-01-29T09:06:54.090Z,28.80
2023-01-29T09:07:54.364Z,27.70
2023-01-29T09:08:54.065Z,27.80
2023-01-29T09:09:54.057Z,28.10
2023-01-29T09:10:54.050Z,28.60
2023-01-29T09:11:54.043Z,28.60
2023-01-29T09:12:54.015Z,27.90
2023-01-29T09:13:54.010Z,28.90
2023-01-29T09:14:53.995Z,28.80
2023-01-29T09:15:53.990Z,27.30
2023-01-29T09:16:54.019Z,27.90
2023-01-29T09:17:54.033Z,28.80
2023-01-29T09:18:53.955Z,27.70
2023-01-29T09:19:53.949Z,28.40
2023-01-29T09:20:53.937Z,28.30
2023-01-29T09:21:53.950Z,28.30
2023-01-29T09:22:53.913Z,27.20
2023-01-29T09:23:59.923Z,28.40
2023-01-29T09:24:53.895Z,27.60
2023-01-29T09:25:53.887Z,27.30
2023-01-29T09:26:53.893Z,27.20
2023-01-29T09:27:53.902Z,27.50
2023-01-29T09:28:53.871Z,27.40
2023-01-29T09:29:53.851Z,26.40
2023-01-29T09:30:54.011Z,26.60
2023-01-29T09:31:54.004Z,27.10
2023-01-29T09:32:54.778Z,26.60
2023-01-29T09:33:53.809Z,27.60
2023-01-29T09:34:53.793Z,26.50
2023-01-29T09:35:53.802Z,27.00
2023-01-29T09:36:53.790Z,26.60
2023-01-29T09:37:53.806Z,26.90
2023-01-29T09:38:53.764Z,25.50
2023-01-29T09:39:53.754Z,26.10
2023-01-29T09:40:53.729Z,25.80
2023-01-29T09:41:53.761Z,25.60
2023-01-29T09:42:53.713Z,26.40
2023-01-29T09:43:53.704Z,27.80
2023-01-29T09:44:53.696Z,25.20
2023-01-29T09:45:53.694Z,26.20
2023-01-29T09:46:53.682Z,25.30
2023-01-29T09:47:53.664Z,25.70
2023-01-29T09:48:53.648Z,25.50
2023-01-29T09:49:53.642Z,24.90
2023-01-29T09:50:53.630Z,26.00
2023-01-29T09:51:53.644Z,23.90
2023-01-29T09:52:53.612Z,24.00
2023-01-29T09:53:53.628Z,23.70
2023-01-29T09:54:53.592Z,24.50
2023-01-29T09:55:53.584Z,24.50
2023-01-29T09:56:53.580Z,23.40
2023-01-29T09:57:53.565Z,23.70
2023-01-29T09:58:53.555Z,24.90
2023-01-29T09:59:53.541Z,23.30
2023-01-29T10:00:53.532Z,23.50
2023-01-29T10:01:53.603Z,23.70
2023-01-29T10:02:53.516Z,23.50
2023-01-29T10:03:53.515Z,23.10
2023-01-29T10:04:53.545Z,22.10
2023-01-29T10:05:53.491Z,23.30
2023-01-29T10:06:53.496Z,22.70
2023-01-29T10:07:53.488Z,22.10
2023-01-29T10:08:53.445Z,22.20
2023-01-29T10:09:53.440Z,22.90
2023-01-29T10:10:53.425Z,23.40
2023-01-29T10:11:53.436Z,21.50
2023-01-29T10:12:53.408Z,22.30
2023-01-29T10:13:53.411Z,21.40
2023-01-29T10:14:53.395Z,21.20
2023-01-29T10:15:53.382Z,21.90
2023-01-29T10:16:53.435Z,21.70
2023-01-29T10:17:53.365Z,21.60
2023-01-29T10:18:53.357Z,21.20
2023-01-29T10:19:53.368Z,20.70
2023-01-29T10:20:53.332Z,20.80
2023-01-29T10:21:53.336Z,21.00
2023-01-29T10:22:53.307Z,21.10
2023-01-29T10:23:53.325Z,20.20
2023-01-29T10:24:53.290Z,20.80
2023-01-29T10:25:53.322Z,20.50
2023-01-29T10:26:53.299Z,19.60
2023-01-29T10:27:53.305Z,19.90
2023-01-29T10:28:53.257Z,20.40
2023-01-29T10:29:53.238Z,20.10
2023-01-29T10:30:53.367Z,19.80
2023-01-29T10:31:53.368Z,20.20
2023-01-29T10:32:53.205Z,20.20
2023-01-29T10:34:08.547Z,20.30
2023-01-29T10:34:53.200Z,20.20
2023-01-29T10:35:55.308Z,20.10
2023-01-29T10:36:53.183Z,19.60
2023-01-29T10:37:53.159Z,20.20
2023-01-29T10:38:53.141Z,20.00
2023-01-29T10:39:53.135Z,19.80
2023-01-29T10:40:53.127Z,20.30
2023-01-29T10:41:54.020Z,20.10
2023-01-29T10:42:53.118Z,19.10
2023-01-29T10:43:53.099Z,19.60
2023-01-29T10:44:53.091Z,20.80
2023-01-29T10:45:53.078Z,20.30
2023-01-29T10:46:53.067Z,20.90
2023-01-29T10:47:53.156Z,20.90
2023-01-29T10:48:53.045Z,20.40
2023-01-29T10:49:53.036Z,19.70
2023-01-29T10:50:53.020Z,20.20
2023-01-29T10:51:53.018Z,21.10
2023-01-29T10:52:53.021Z,21.00
2023-01-29T10:53:53.002Z,20.30
2023-01-29T10:54:53.011Z,20.70
2023-01-29T10:55:52.976Z,20.60
2023-01-29T10:56:52.968Z,20.80
2023-01-29T10:57:52.966Z,20.40
2023-01-29T10:58:52.949Z,21.10
2023-01-29T10:59:52.938Z,20.00
2023-01-29T11:00:52.936Z,20.30
2023-01-29T11:01:52.970Z,20.60
2023-01-29T11:02:53.146Z,20.20
2023-01-29T11:03:52.887Z,20.30
2023-01-29T11:04:52.883Z,19.70
2023-01-29T11:05:52.873Z,19.70
2023-01-29T11:06:52.868Z,20.70
2023-01-29T11:07:52.861Z,19.70
2023-01-29T11:08:52.856Z,19.50
2023-01-29T11:09:52.830Z,19.40
2023-01-29T11:10:52.840Z,19.20
2023-01-29T11:11:52.837Z,19.50
2023-01-29T11:12:52.818Z,19.00
2023-01-29T11:13:52.789Z,19.50
2023-01-29T11:14:52.792Z,18.80
2023-01-29T11:15:52.778Z,18.90
2023-01-29T11:16:52.835Z,18.70
2023-01-29T11:17:52.779Z,19.90
2023-01-29T11:18:52.777Z,19.60
2023-01-29T11:19:52.761Z,19.30
2023-01-29T11:20:52.734Z,19.50
2023-01-29T11:21:52.704Z,19.10
2023-01-29T11:22:52.732Z,18.60
2023-01-29T11:23:52.687Z,19.40
2023-01-29T11:24:52.681Z,18.80
2023-01-29T11:25:52.677Z,18.80
2023-01-29T11:26:52.660Z,18.70
2023-01-29T11:27:52.661Z,18.10
2023-01-29T11:28:52.638Z,18.70
2023-01-29T11:29:52.623Z,18.50
2023-01-29T11:30:52.754Z,18.60
2023-01-29T11:31:52.659Z,18.70
2023-01-29T11:32:52.613Z,18.80
2023-01-29T11:33:52.588Z,18.40
2023-01-29T11:34:52.579Z,18.70
2023-01-29T11:35:52.644Z,17.30
2023-01-29T11:36:52.560Z,18.10
2023-01-29T11:37:52.561Z,18.30
2023-01-29T11:38:52.535Z,17.90
2023-01-29T11:39:52.521Z,18.10
2023-01-29T11:40:52.535Z,18.70
2023-01-29T11:41:52.501Z,18.90
2023-01-29T11:42:52.513Z,18.60
2023-01-29T11:43:52.479Z,18.40
2023-01-29T11:44:52.472Z,18.50
2023-01-29T11:45:52.455Z,19.10
2023-01-29T11:46:52.453Z,19.10
2023-01-29T11:47:52.459Z,18.60
2023-01-29T11:48:53.592Z,19.20
2023-01-29T11:49:52.417Z,18.60
2023-01-29T11:50:52.417Z,19.00
2023-01-29T11:51:52.397Z,18.90
2023-01-29T11:52:52.410Z,18.30
2023-01-29T11:53:52.379Z,17.80
2023-01-29T11:54:52.375Z,18.80
2023-01-29T11:55:52.352Z,18.30
2023-01-29T11:56:52.356Z,18.20
2023-01-29T11:57:52.353Z,18.20
2023-01-29T11:58:52.326Z,19.00
2023-01-29T11:59:52.316Z,18.90
2023-01-29T12:00:52.342Z,18.80
2023-01-29T12:01:52.298Z,18.30
2023-01-29T12:02:52.299Z,17.30
2023-01-29T12:03:52.347Z,18.90
2023-01-29T12:04:52.269Z,18.60
2023-01-29T12:05:52.436Z,18.00
2023-01-29T12:06:52.271Z,18.50
2023-01-29T12:07:52.244Z,19.20
2023-01-29T12:08:52.225Z,18.80
2023-01-29T12:09:52.213Z,19.60
2023-01-29T12:10:52.199Z,19.10
2023-01-29T12:11:52.187Z,18.30
2023-01-29T12:12:52.201Z,18.80
2023-01-29T12:13:52.172Z,18.90
2023-01-29T12:14:52.164Z,18.90
2023-01-29T12:15:54.727Z,17.90
2023-01-29T12:16:52.171Z,19.90
2023-01-29T12:17:52.144Z,19.10
2023-01-29T12:18:52.175Z,19.30
2023-01-29T12:19:52.118Z,19.30
2023-01-29T12:20:52.149Z,19.70
2023-01-29T12:21:52.089Z,19.00
2023-01-29T12:22:52.089Z,18.80
2023-01-29T12:23:52.064Z,19.30
2023-01-29T12:24:52.061Z,19.90
2023-01-29T12:25:52.259Z,18.90
2023-01-29T12:26:52.044Z,19.50
2023-01-29T12:27:52.042Z,19.10
2023-01-29T12:28:52.030Z,19.10
2023-01-29T12:29:52.004Z,18.50
2023-01-29T12:30:52.036Z,20.10
2023-01-29T12:31:51.987Z,19.80
2023-01-29T12:32:52.006Z,20.10
2023-01-29T12:33:52.069Z,19.70
2023-01-29T12:34:51.963Z,19.40
2023-01-29T12:35:51.956Z,19.80
2023-01-29T12:36:51.944Z,19.30
2023-01-29T12:37:51.955Z,20.00
2023-01-29T12:38:51.928Z,19.20
2023-01-29T12:39:51.951Z,20.00
2023-01-29T12:40:51.904Z,20.10
2023-01-29T12:41:51.887Z,19.50
2023-01-29T12:42:51.907Z,20.40
2023-01-29T12:43:51.866Z,19.60
2023-01-29T12:44:51.875Z,18.80
2023-01-29T12:45:51.844Z,20.60
2023-01-29T12:46:51.879Z,18.70
2023-01-29T12:47:51.843Z,19.80
2023-01-29T12:48:51.820Z,19.40
2023-01-29T12:49:51.808Z,19.90
2023-01-29T12:50:51.798Z,19.60
2023-01-29T12:51:51.793Z,20.10
2023-01-29T12:52:51.803Z,20.20
2023-01-29T12:53:51.762Z,19.10